• Join FlightAware (Why Join?)
  • Login
  • US Flag 
05:08PM EDT


 

Airport Tracker/Info


-or-


 

Live Flight TrackerFlight Track Log ✈ ADR727 ✈ 19-Jun-2013 ✈ LATI / TIA - LJLJ / LJU

Flight Track Log - Related Links

Times and Time Zones

All times are in EDT time to prevent confusion due to time zone crossing. See the ADR727 flight status page for this flight to view local times or setup timezone preferences in your user account.

Time Position Orientation Groundspeed Altitude Reporting Facility
EDT Latitude Longitude Course Direction KTS MPH feet Rate Location/Type
11:07PM 42.3072 18.8241 324° Northwest  Level Estimated
11:08PM 42.3961 18.7331 323° Northwest  Level Estimated
11:09PM 42.4849 18.6418 323° Northwest  Level Estimated
11:10PM 42.5736 18.5503 323° Northwest  Level Estimated
11:11PM 42.6623 18.4585 323° Northwest  Level Estimated
11:12PM 42.7508 18.3664 323° Northwest  Level Estimated
11:13PM 42.8393 18.2740 323° Northwest  Level Estimated
11:14PM 42.9277 18.1814 323° Northwest  Level Estimated
11:15PM 43.0161 18.0886 322° Northwest  Level Estimated
11:16PM 43.1044 17.9954 322° Northwest  Level Estimated
11:17PM 43.1926 17.9021 322° Northwest  Level Estimated
11:18PM 43.2807 17.8084 322° Northwest  Level Estimated
11:19PM 43.3687 17.7144 322° Northwest  Level Estimated
11:20PM 43.4567 17.6202 322° Northwest  Level Estimated
11:21PM 43.5446 17.5257 322° Northwest  Level Estimated
11:22PM 43.6324 17.4310 322° Northwest  Level Estimated
11:23PM 43.7201 17.3359 322° Northwest  Level Estimated
11:24PM 43.8078 17.2406 322° Northwest  Level Estimated
11:25PM 43.8953 17.1450 322° Northwest  Level Estimated
11:26PM 43.9828 17.0491 322° Northwest  Level Estimated
11:27PM 44.0702 16.9529 322° Northwest  Level Estimated
11:28PM 44.1576 16.8565 322° Northwest  Level Estimated
11:29PM 44.2448 16.7597 322° Northwest  Level Estimated
11:30PM 44.3320 16.6627 321° Northwest  Level Estimated
11:31PM 44.4191 16.5654 321° Northwest  Level Estimated
11:32PM 44.5061 16.4678 321° Northwest  Level Estimated
11:33PM 44.5930 16.3699 321° Northwest  Level Estimated
11:34PM 44.6798 16.2717 321° Northwest  Level Estimated
11:35PM 44.7666 16.1732 321° Northwest  Level Estimated
11:36PM 44.8533 16.0744 321° Northwest  Level Estimated
11:37PM 44.9398 15.9753 321° Northwest  Level Estimated
11:38PM 45.0263 15.8759 321° Northwest  Level Estimated
11:39PM 45.1128 15.7763 321° Northwest  Level Estimated
11:40PM 45.1991 15.6763 321° Northwest  Level Estimated
11:41PM 45.2853 15.5760 321° Northwest  Level Estimated
11:42PM 45.3714 15.4754 321° Northwest  Level Estimated
11:43PM 45.4575 15.3745 321° Northwest  Level Estimated
11:44PM 45.5435 15.2733 321° Northwest  Level Estimated
11:45PM 45.6294 15.1718 320° Northwest  Level Estimated
11:46PM 45.7151 15.0700 320° Northwest  Level Estimated
11:47PM 45.8008 14.9678 320° Northwest  Level Estimated
11:48PM 45.8865 14.8654 320° Northwest  Level Estimated
11:49PM 45.9720 14.7626 320° Northwest  Level Estimated
11:50PM 46.0574 14.6595 320° Northwest  Level Estimated
11:51PM 46.1427 14.5561 320° Northwest  Level Estimated
11:52PM 46.2237 14.4576 320° Northwest  Level Estimated
11:53PM 46.2237 14.4576 170° South  Level Estimated
11:54PM 46.2237 14.4576 170° South  Level Estimated
11:55PM 46.2237 14.4576 170° South  Level Estimated
11:56PM 46.2237 14.4576 170° South  Level Estimated
11:57PM 46.2237 14.4576 170° South  Level Estimated
11:58PM 46.2237 14.4576 170° South  Level Estimated
11:59PM 46.2237 14.4576 170° South  Level Estimated
12:00AM 46.2237 14.4576 170° South  Level Estimated
12:01AM 46.2237 14.4576 170° South  Level Estimated
12:02AM 46.2237 14.4576 170° South  Level Estimated
12:03AM 46.2237 14.4576 170° South  Level Estimated
12:04AM 46.2237 14.4576 170° South  Level Estimated
12:05AM 46.2237 14.4576 170° South  Level Estimated
12:06AM 46.2237 14.4576 170° South  Level Estimated
12:07AM 46.2237 14.4576 170° South  Level Estimated
12:08AM 46.2237 14.4576 170° South  Level Estimated